Terminal Aerodrome Forecast
Issued by NWS Brownsville, TX

Home | Current Version | Previous Version | Text Only | Print | Product List | Glossary On
Versions: 1 2 3 4 5 6 7 8 9 10 11 12 13 14 15 16 17 18 19 20 21
000
FTUS44 KBRO 082359 AAA
TAFBRO
TAF AMD
KBRO 082359Z 0900/0924 33020G30KT P6SM -RA OVC012
      TEMPO 0900/0904 4SM -DZ BR
     FM090600 33017G26KT P6SM -RA OVC012
     FM091200 33015G23KT P6SM -DZ OVC012
     FM092000 33012G18KT P6SM OVC012=

USA.gov is the U.S. government's official web portal to all federal, state and local government web resources and services.